Terminal Aerodrome Forecast
Issued by NWS

Home | Current Version | Previous Version | Text Only | Print | Product List | Glossary On
Versions: 1 2 3 4 5 6 7 8 9 10 11 12 13 14 15 16 17 18 19 20
241
FTUS45 KFGZ 110600 AAA
TAFGCN
TAF AMD
KGCN 110600Z 1106/1206 21006KT P6SM BKN015 OVC025
      TEMPO 1114/1118 SCT015 BKN025
     FM111900 25010KT P6SM SCT020 BKN200=

USA.gov is the U.S. government's official web portal to all federal, state and local government web resources and services.